< < Back
Terminal Aerodrome Forecast


Current Version              Previous Versions:   1  2  3  4  5  6  7  8  9  

Terminal Aerodrome Forecast

826
FTUS42 KCHS 031640 AAB
TAFSAV
TAF AMD
KSAV 031640Z 0317/0412 13008KT P6SM SCT015 BKN050
     FM040000 18006KT 5SM BR SCT005
     FM040500 18005KT 1SM BR OVC002=

Latest METAR

674
SAUS80 KWBC 032200
MTRSAV
METAR KSAV 032153Z 13009KT 10SM SCT060 SCT250 22/15 A3013 RMK AO2 SLP201
T02220150


USA.gov is the U.S. government's official web portal to all federal, state and local government web resources and services.